createdAt,value
2023-03-19T00:02:52.451Z,6.16
2023-03-19T00:07:54.159Z,6.20
2023-03-19T00:12:55.812Z,6.27
2023-03-19T00:17:57.607Z,6.00
2023-03-19T00:22:59.379Z,6.10
2023-03-19T00:28:01.032Z,6.12
2023-03-19T00:33:02.943Z,6.09
2023-03-19T00:38:04.783Z,5.94
2023-03-19T00:43:07.080Z,6.05
2023-03-19T00:48:08.735Z,6.03
2023-03-19T00:53:10.508Z,5.92
2023-03-19T00:58:12.453Z,5.62
2023-03-19T01:03:14.275Z,5.71
2023-03-19T01:08:17.184Z,5.60
2023-03-19T01:13:19.098Z,5.52
2023-03-19T01:18:20.838Z,5.54
2023-03-19T01:23:22.512Z,5.64
2023-03-19T01:28:24.506Z,5.56
2023-03-19T01:33:26.486Z,5.47
2023-03-19T01:38:33.174Z,5.51
2023-03-19T01:43:39.138Z,5.48
2023-03-19T01:49:02.833Z,5.33
2023-03-19T01:54:08.465Z,5.28
2023-03-19T01:59:28.031Z,5.33
2023-03-19T02:04:54.257Z,5.22
2023-03-19T02:09:56.688Z,5.33
2023-03-19T02:14:58.564Z,5.46
2023-03-19T02:20:26.014Z,5.22
2023-03-19T02:25:36.621Z,5.20
2023-03-19T02:30:38.748Z,5.13
2023-03-19T02:35:47.263Z,5.18
2023-03-19T02:41:10.196Z,5.15
2023-03-19T02:46:14.084Z,4.89
2023-03-19T02:51:16.257Z,5.01
2023-03-19T02:56:18.292Z,5.05
2023-03-19T03:01:19.926Z,5.06
2023-03-19T03:06:21.658Z,4.95
2023-03-19T03:11:23.257Z,5.15
2023-03-19T03:16:25.466Z,4.87
2023-03-19T03:21:27.178Z,4.85
2023-03-19T03:26:29.103Z,4.82
2023-03-19T03:31:30.743Z,4.81
2023-03-19T03:36:32.522Z,4.88
2023-03-19T03:41:34.263Z,4.82
2023-03-19T03:46:37.795Z,4.94
2023-03-19T03:51:39.422Z,4.80
2023-03-19T03:56:41.113Z,4.70
2023-03-19T04:01:43.279Z,4.69
2023-03-19T04:06:45.005Z,4.70
2023-03-19T04:12:03.062Z,4.72
2023-03-19T04:17:05.276Z,4.54
2023-03-19T04:22:08.566Z,4.53
2023-03-19T04:27:10.261Z,4.70
2023-03-19T04:32:13.671Z,4.63
2023-03-19T04:37:15.409Z,4.64
2023-03-19T04:42:23.631Z,4.79
2023-03-19T04:47:48.497Z,4.65
2023-03-19T04:52:50.627Z,4.68
2023-03-19T04:57:53.003Z,4.38
2023-03-19T05:02:58.130Z,4.55
2023-03-19T05:08:00.025Z,4.36
2023-03-19T05:13:02.444Z,4.27
2023-03-19T05:18:05.292Z,4.11
2023-03-19T05:23:15.155Z,4.21
2023-03-19T05:28:28.620Z,4.11
2023-03-19T05:33:30.744Z,4.24
2023-03-19T05:38:32.449Z,4.41
2023-03-19T05:43:40.019Z,4.36
2023-03-19T05:48:46.911Z,4.44
2023-03-19T05:53:48.665Z,4.70
2023-03-19T05:59:22.371Z,4.84
2023-03-19T06:04:37.010Z,4.97
2023-03-19T06:09:38.771Z,5.07
2023-03-19T06:14:40.805Z,5.37
2023-03-19T06:20:01.275Z,5.39
2023-03-19T06:25:03.026Z,5.71
2023-03-19T06:30:07.591Z,5.80
2023-03-19T06:35:10.404Z,6.26
2023-03-19T06:40:12.502Z,6.22
2023-03-19T06:45:16.561Z,6.81
2023-03-19T06:50:18.347Z,7.51
2023-03-19T06:55:20.643Z,8.20
2023-03-19T07:00:22.683Z,8.37
2023-03-19T07:05:24.343Z,8.75
2023-03-19T07:10:25.993Z,8.80
2023-03-19T07:15:27.582Z,9.15
2023-03-19T07:20:29.339Z,9.83
2023-03-19T07:25:31.373Z,10.48
2023-03-19T07:30:33.166Z,10.40
2023-03-19T07:35:35.037Z,10.47
2023-03-19T07:40:37.091Z,10.60
2023-03-19T07:45:38.740Z,11.79
2023-03-19T07:50:40.377Z,11.84
2023-03-19T07:55:41.980Z,12.23
2023-03-19T08:00:44.999Z,12.87
2023-03-19T08:05:48.950Z,14.36
2023-03-19T08:10:52.982Z,14.04
2023-03-19T08:15:56.426Z,15.05
2023-03-19T08:20:58.182Z,14.16
2023-03-19T08:25:59.790Z,13.30
2023-03-19T08:31:13.111Z,15.13
2023-03-19T08:36:15.516Z,14.71
2023-03-19T08:41:17.114Z,15.48
2023-03-19T08:46:19.002Z,16.78
2023-03-19T08:51:20.982Z,17.61
2023-03-19T08:56:22.661Z,18.66
2023-03-19T09:01:24.500Z,17.73
2023-03-19T09:06:26.540Z,16.47
2023-03-19T09:11:28.201Z,17.38
2023-03-19T09:16:31.346Z,17.58
2023-03-19T09:21:32.975Z,18.31
2023-03-19T09:26:34.745Z,16.77
2023-03-19T09:31:37.453Z,17.35
2023-03-19T09:36:39.172Z,18.07
2023-03-19T09:42:00.163Z,19.31
2023-03-19T09:47:12.908Z,19.48
2023-03-19T09:52:44.047Z,19.57
2023-03-19T09:57:47.682Z,20.66
2023-03-19T10:02:59.186Z,20.92
2023-03-19T10:08:32.081Z,21.71
2023-03-19T10:13:40.231Z,22.03
2023-03-19T10:18:48.060Z,23.46
2023-03-19T10:24:08.054Z,24.88
2023-03-19T10:29:14.648Z,21.92
2023-03-19T10:34:35.106Z,21.13
2023-03-19T10:39:38.670Z,20.83
2023-03-19T10:44:58.165Z,20.91
2023-03-19T10:49:59.766Z,20.99
2023-03-19T10:55:03.518Z,19.21
2023-03-19T11:00:27.102Z,20.30
2023-03-19T11:05:31.952Z,18.85
2023-03-19T11:10:36.018Z,18.66
2023-03-19T11:15:38.985Z,18.66
2023-03-19T11:20:41.889Z,19.54
2023-03-19T11:25:52.147Z,18.78
2023-03-19T11:31:15.604Z,19.37
2023-03-19T11:36:31.107Z,18.86
2023-03-19T11:42:00.347Z,19.00
2023-03-19T11:47:17.802Z,18.57
2023-03-19T11:52:50.250Z,18.38
2023-03-19T11:58:16.066Z,18.42
2023-03-19T12:03:37.195Z,18.79
2023-03-19T12:09:02.121Z,18.69
2023-03-19T12:14:32.154Z,17.25
2023-03-19T12:19:51.836Z,17.06
2023-03-19T12:25:18.924Z,16.75
2023-03-19T12:30:46.989Z,17.15
2023-03-19T12:35:52.440Z,17.56
2023-03-19T12:41:00.102Z,17.87
2023-03-19T12:46:19.330Z,18.30
2023-03-19T12:51:26.722Z,18.49
2023-03-19T12:56:52.322Z,18.52
2023-03-19T13:02:00.918Z,17.18
2023-03-19T13:07:28.849Z,17.80
2023-03-19T13:12:34.331Z,17.78
2023-03-19T13:17:41.582Z,18.25
2023-03-19T13:22:47.598Z,17.86
2023-03-19T13:27:54.370Z,17.43
2023-03-19T13:33:13.001Z,17.39
2023-03-19T13:38:15.634Z,17.15
2023-03-19T13:43:30.677Z,17.22
2023-03-19T13:48:32.251Z,17.41
2023-03-19T13:53:52.061Z,17.47
2023-03-19T13:59:27.912Z,17.66
2023-03-19T14:04:31.265Z,17.69
2023-03-19T14:09:44.952Z,17.49
2023-03-19T14:15:07.325Z,17.17
2023-03-19T14:20:12.813Z,17.02
2023-03-19T14:25:20.305Z,16.97
2023-03-19T14:30:37.856Z,17.41
2023-03-19T14:35:45.077Z,17.48
2023-03-19T14:40:51.446Z,17.62
2023-03-19T14:46:00.956Z,17.59
2023-03-19T14:51:08.594Z,17.88
2023-03-19T14:56:15.858Z,17.50
2023-03-19T15:01:19.127Z,17.28
2023-03-19T15:06:21.122Z,17.21
2023-03-19T15:12:01.290Z,16.94
2023-03-19T15:17:32.198Z,16.70
2023-03-19T15:22:34.711Z,16.33
2023-03-19T15:27:36.737Z,16.14
2023-03-19T15:32:56.307Z,15.67
2023-03-19T15:38:07.018Z,15.29
2023-03-19T15:43:12.874Z,15.22
2023-03-19T15:48:27.277Z,15.25
2023-03-19T15:53:32.385Z,15.11
2023-03-19T15:58:40.111Z,14.94
2023-03-19T16:03:45.477Z,14.89
2023-03-19T16:08:49.783Z,14.64
2023-03-19T16:14:17.228Z,14.37
2023-03-19T16:19:58.131Z,14.19
2023-03-19T16:25:02.040Z,14.10
2023-03-19T16:30:13.777Z,13.84
2023-03-19T16:35:19.935Z,13.71
2023-03-19T16:40:21.494Z,13.48
2023-03-19T16:45:27.534Z,13.28
2023-03-19T16:50:33.807Z,13.16
2023-03-19T16:55:36.337Z,13.03
2023-03-19T17:00:38.286Z,12.94
2023-03-19T17:05:39.923Z,12.84
2023-03-19T17:10:49.739Z,12.78
2023-03-19T17:15:51.618Z,12.77
2023-03-19T17:21:10.794Z,12.71
2023-03-19T17:26:21.833Z,12.60
2023-03-19T17:31:29.111Z,12.40
2023-03-19T17:36:31.048Z,12.26
2023-03-19T17:41:35.727Z,12.06
2023-03-19T17:46:49.930Z,11.90
2023-03-19T17:51:51.723Z,11.74
2023-03-19T17:56:54.585Z,11.56
2023-03-19T18:01:56.318Z,11.35
2023-03-19T18:06:57.963Z,11.25
2023-03-19T18:11:59.652Z,11.24
2023-03-19T18:17:01.453Z,11.12
2023-03-19T18:22:12.620Z,11.07
2023-03-19T18:27:14.691Z,10.95
2023-03-19T18:32:23.426Z,10.96
2023-03-19T18:37:25.472Z,10.90
2023-03-19T18:42:28.173Z,10.86
2023-03-19T18:47:30.621Z,10.92
2023-03-19T18:52:32.227Z,10.98
2023-03-19T18:57:36.252Z,10.79
2023-03-19T19:02:37.882Z,10.78
2023-03-19T19:07:39.479Z,10.80
2023-03-19T19:12:44.471Z,10.87
2023-03-19T19:17:46.893Z,10.86
2023-03-19T19:22:50.674Z,10.69
2023-03-19T19:28:01.969Z,10.78
2023-03-19T19:33:04.665Z,10.66
2023-03-19T19:38:06.756Z,10.76
2023-03-19T19:43:18.410Z,10.82
2023-03-19T19:48:29.121Z,10.87
2023-03-19T19:53:31.025Z,10.80
2023-03-19T19:58:34.083Z,10.83
2023-03-19T20:03:35.795Z,10.75
2023-03-19T20:08:38.064Z,10.67
2023-03-19T20:13:40.565Z,10.70
2023-03-19T20:18:43.648Z,10.77
2023-03-19T20:23:45.692Z,10.70
2023-03-19T20:28:48.219Z,10.64
2023-03-19T20:33:49.835Z,10.64
2023-03-19T20:38:52.604Z,10.51
2023-03-19T20:43:55.754Z,10.58
2023-03-19T20:48:57.391Z,10.36
2023-03-19T20:53:59.075Z,10.38
2023-03-19T20:59:00.690Z,10.37
2023-03-19T21:04:02.308Z,10.64
2023-03-19T21:09:04.382Z,10.16
2023-03-19T21:14:06.548Z,10.09
2023-03-19T21:19:08.137Z,10.03
2023-03-19T21:24:16.486Z,9.83
2023-03-19T21:29:29.145Z,9.77
2023-03-19T21:34:31.010Z,9.58
2023-03-19T21:39:32.634Z,9.43
2023-03-19T21:44:34.312Z,9.32
2023-03-19T21:49:35.906Z,9.29
2023-03-19T21:54:37.493Z,9.19
2023-03-19T21:59:40.347Z,9.17
2023-03-19T22:04:41.981Z,9.17
2023-03-19T22:09:45.346Z,9.17
2023-03-19T22:14:46.974Z,9.21
2023-03-19T22:19:48.594Z,9.32
2023-03-19T22:24:50.339Z,9.21
2023-03-19T22:29:51.955Z,9.37
2023-03-19T22:34:53.564Z,9.58
2023-03-19T22:39:55.698Z,9.54
2023-03-19T22:44:57.541Z,9.58
2023-03-19T22:49:59.451Z,9.73
2023-03-19T22:55:01.045Z,9.71
2023-03-19T23:00:12.070Z,9.61
2023-03-19T23:05:25.262Z,9.56
2023-03-19T23:10:29.881Z,9.33
2023-03-19T23:15:31.476Z,9.15
2023-03-19T23:20:33.827Z,9.18
2023-03-19T23:25:36.545Z,9.28
2023-03-19T23:30:41.445Z,9.39
2023-03-19T23:35:43.764Z,9.42
2023-03-19T23:40:46.294Z,9.48
2023-03-19T23:45:50.402Z,9.56
2023-03-19T23:50:52.597Z,9.41
2023-03-19T23:55:59.590Z,9.54
